createdAt,value
2018-06-19T00:00:58.359Z,18.54
2018-06-19T00:02:24.869Z,18.54
2018-06-19T00:03:53.365Z,18.55
2018-06-19T00:05:20.836Z,18.57
2018-06-19T00:06:47.074Z,18.57
2018-06-19T00:08:14.540Z,18.57
2018-06-19T00:09:42.165Z,18.57
2018-06-19T00:11:10.692Z,18.56
2018-06-19T00:12:37.081Z,18.56
2018-06-19T00:14:04.563Z,18.55
2018-06-19T00:15:31.747Z,18.54
2018-06-19T00:17:00.335Z,18.52
2018-06-19T00:18:26.850Z,18.52
2018-06-19T00:19:54.313Z,18.50
2018-06-19T00:21:21.757Z,18.50
2018-06-19T00:22:49.309Z,18.49
2018-06-19T00:24:16.544Z,18.49
2018-06-19T00:25:44.083Z,18.48
2018-06-19T00:27:11.362Z,18.47
2018-06-19T00:28:38.845Z,18.47
2018-06-19T00:30:07.255Z,18.46
2018-06-19T00:31:33.641Z,18.46
2018-06-19T00:33:01.128Z,18.45
2018-06-19T00:34:29.814Z,18.44
2018-06-19T00:35:56.223Z,18.42
2018-06-19T00:37:23.079Z,18.39
2018-06-19T00:38:50.463Z,18.37
2018-06-19T00:40:17.972Z,18.34
2018-06-19T00:41:45.442Z,18.32
2018-06-19T00:43:13.152Z,18.30
2018-06-19T00:44:41.751Z,18.28
2018-06-19T00:46:07.795Z,18.26
2018-06-19T00:47:35.265Z,18.25
2018-06-19T00:49:02.847Z,18.23
2018-06-19T00:50:30.525Z,18.21
2018-06-19T00:51:59.256Z,18.19
2018-06-19T00:53:25.804Z,18.17
2018-06-19T00:54:53.138Z,18.15
2018-06-19T00:56:20.517Z,18.12
2018-06-19T00:57:48.181Z,18.09
2018-06-19T00:59:16.424Z,18.08
2018-06-19T01:00:42.821Z,18.06
2018-06-19T01:02:11.203Z,18.04
2018-06-19T01:03:37.669Z,18.02
2018-06-19T01:05:06.054Z,18.00
2018-06-19T01:06:33.664Z,17.98
2018-06-19T01:07:59.682Z,17.96
2018-06-19T01:09:27.241Z,17.94
2018-06-19T01:10:54.532Z,17.90
2018-06-19T01:12:23.249Z,17.88
2018-06-19T01:13:49.444Z,17.86
2018-06-19T01:15:17.135Z,17.84
2018-06-19T01:16:45.491Z,17.83
2018-06-19T01:18:11.704Z,17.82
2018-06-19T01:19:39.293Z,17.79
2018-06-19T01:21:07.677Z,17.79
2018-06-19T01:22:35.086Z,17.78
2018-06-19T01:24:01.460Z,17.77
2018-06-19T01:25:29.704Z,17.75
2018-06-19T01:26:56.340Z,17.74
2018-06-19T01:28:24.845Z,17.72
2018-06-19T01:29:52.299Z,17.68
2018-06-19T01:31:18.757Z,17.65
2018-06-19T01:32:47.116Z,17.63
2018-06-19T01:34:13.512Z,17.61
2018-06-19T01:35:41.935Z,17.60
2018-06-19T01:37:09.351Z,17.56
2018-06-19T01:38:35.710Z,17.55
2018-06-19T01:40:04.237Z,17.55
2018-06-19T01:41:31.878Z,17.55
2018-06-19T01:42:58.266Z,17.55
2018-06-19T01:44:26.859Z,17.54
2018-06-19T01:45:53.824Z,17.53
2018-06-19T01:47:21.375Z,17.53
2018-06-19T01:48:47.665Z,17.52
2018-06-19T01:50:15.217Z,17.52
2018-06-19T01:51:42.708Z,17.51
2018-06-19T01:53:11.383Z,17.51
2018-06-19T01:54:37.930Z,17.47
2018-06-19T01:56:05.305Z,17.46
2018-06-19T01:57:32.893Z,17.45
2018-06-19T01:59:00.397Z,17.46
2018-06-19T02:00:28.897Z,17.46
2018-06-19T02:01:55.240Z,17.47
2018-06-19T02:03:23.587Z,17.48
2018-06-19T02:04:50.927Z,17.49
2018-06-19T02:06:18.271Z,17.50
2018-06-19T02:07:44.510Z,17.51
2018-06-19T02:09:12.942Z,17.51
2018-06-19T02:10:40.527Z,17.50
2018-06-19T02:12:06.940Z,17.49
2018-06-19T02:13:35.370Z,17.48
2018-06-19T02:15:01.572Z,17.46
2018-06-19T02:16:29.026Z,17.43
2018-06-19T02:17:57.635Z,17.43
2018-06-19T02:19:23.827Z,17.43
2018-06-19T02:20:52.360Z,17.43
2018-06-19T02:22:18.704Z,17.42
2018-06-19T02:23:46.210Z,17.42
2018-06-19T02:25:13.807Z,17.42
2018-06-19T02:26:42.027Z,17.40
2018-06-19T02:28:08.525Z,17.36
2018-06-19T02:29:35.890Z,17.34
2018-06-19T02:31:04.227Z,17.32
2018-06-19T02:32:31.684Z,17.31
2018-06-19T02:33:58.218Z,17.29
2018-06-19T02:35:26.658Z,17.27
2018-06-19T02:36:53.002Z,17.27
2018-06-19T02:38:20.474Z,17.28
2018-06-19T02:39:48.830Z,17.27
2018-06-19T02:41:16.252Z,17.27
2018-06-19T02:42:42.683Z,17.25
2018-06-19T02:44:11.182Z,17.24
2018-06-19T02:45:37.446Z,17.22
2018-06-19T02:47:05.955Z,17.22
2018-06-19T02:48:33.437Z,17.22
2018-06-19T02:49:59.855Z,17.20
2018-06-19T02:51:28.244Z,17.16
2018-06-19T02:52:54.669Z,17.12
2018-06-19T02:54:22.049Z,17.07
2018-06-19T02:55:49.537Z,17.03
2018-06-19T02:57:16.765Z,17.04
2018-06-19T02:58:44.069Z,17.04
2018-06-19T03:00:11.447Z,17.03
2018-06-19T03:01:38.897Z,17.01
2018-06-19T03:03:06.422Z,17.01
2018-06-19T03:04:33.893Z,17.02
2018-06-19T03:06:01.458Z,17.03
2018-06-19T03:07:29.771Z,17.02
2018-06-19T03:08:56.240Z,17.01
2018-06-19T03:10:24.463Z,17.01
2018-06-19T03:11:51.044Z,17.03
2018-06-19T03:13:18.349Z,17.04
2018-06-19T03:14:46.865Z,17.04
2018-06-19T03:16:13.190Z,17.02
2018-06-19T03:17:40.801Z,17.03
2018-06-19T03:19:08.130Z,17.02
2018-06-19T03:20:35.428Z,17.02
2018-06-19T03:22:02.715Z,17.02
2018-06-19T03:23:30.045Z,17.05
2018-06-19T03:24:58.464Z,17.06
2018-06-19T03:26:25.925Z,17.08
2018-06-19T03:27:52.303Z,17.10
2018-06-19T03:29:20.883Z,17.11
2018-06-19T03:30:48.345Z,17.09
2018-06-19T03:32:14.768Z,17.07
2018-06-19T03:33:42.124Z,17.07
2018-06-19T03:35:10.559Z,17.06
2018-06-19T03:36:37.021Z,17.05
2018-06-19T03:38:04.536Z,17.02
2018-06-19T03:39:32.000Z,16.98
2018-06-19T03:40:59.423Z,16.97
2018-06-19T03:42:28.096Z,16.95
2018-06-19T03:43:54.485Z,16.94
2018-06-19T03:45:21.897Z,16.94
2018-06-19T03:46:49.383Z,16.97
2018-06-19T03:48:16.878Z,17.01
2018-06-19T03:49:45.316Z,17.03
2018-06-19T03:51:11.653Z,17.06
2018-06-19T03:52:39.019Z,17.08
2018-06-19T03:54:07.678Z,17.13
2018-06-19T03:55:35.042Z,17.18
2018-06-19T03:57:02.578Z,17.22
2018-06-19T03:58:28.987Z,17.25
2018-06-19T03:59:56.388Z,17.25
2018-06-19T04:01:24.878Z,17.28
2018-06-19T04:02:51.266Z,17.34
2018-06-19T04:04:18.486Z,17.40
2018-06-19T04:05:46.757Z,17.44
2018-06-19T04:07:13.206Z,17.48
2018-06-19T04:08:40.685Z,17.50
2018-06-19T04:10:09.155Z,17.51
2018-06-19T04:11:35.602Z,17.54
2018-06-19T04:13:04.070Z,17.58
2018-06-19T04:14:31.577Z,17.59
2018-06-19T04:15:57.743Z,17.58
2018-06-19T04:17:26.121Z,17.59
2018-06-19T04:18:52.624Z,17.60
2018-06-19T04:20:20.274Z,17.63
2018-06-19T04:21:48.759Z,17.67
2018-06-19T04:23:16.155Z,17.67
2018-06-19T04:24:43.543Z,17.67
2018-06-19T04:26:09.804Z,17.67
2018-06-19T04:27:38.335Z,17.64
2018-06-19T04:29:04.503Z,17.64
2018-06-19T04:30:33.198Z,17.65
2018-06-19T04:31:59.318Z,17.66
2018-06-19T04:33:28.039Z,17.67
2018-06-19T04:34:54.561Z,17.69
2018-06-19T04:36:22.828Z,17.71
2018-06-19T04:37:50.392Z,17.75
2018-06-19T04:39:16.837Z,17.81
2018-06-19T04:40:45.120Z,17.89
2018-06-19T04:42:11.378Z,17.95
2018-06-19T04:43:39.981Z,18.01
2018-06-19T04:45:07.448Z,18.05
2018-06-19T04:46:34.894Z,18.08
2018-06-19T04:48:01.328Z,18.08
2018-06-19T04:49:29.680Z,18.09
2018-06-19T04:50:56.205Z,18.09
2018-06-19T04:52:23.831Z,18.09
2018-06-19T04:53:51.292Z,18.08
2018-06-19T04:55:18.657Z,18.10
2018-06-19T04:56:46.232Z,18.16
2018-06-19T04:58:14.649Z,18.21
2018-06-19T04:59:41.967Z,18.29
2018-06-19T05:01:09.478Z,18.36
2018-06-19T05:02:37.052Z,18.43
2018-06-19T05:04:03.289Z,18.53
2018-06-19T05:05:30.981Z,18.58
2018-06-19T05:06:59.331Z,18.60
2018-06-19T05:08:25.822Z,18.60
2018-06-19T05:09:54.157Z,18.58
2018-06-19T05:11:21.690Z,18.52
2018-06-19T05:12:49.139Z,18.47
2018-06-19T05:14:16.561Z,18.41
2018-06-19T05:15:43.893Z,18.35
2018-06-19T05:17:10.488Z,18.29
2018-06-19T05:18:37.951Z,18.24
2018-06-19T05:20:05.239Z,18.21
2018-06-19T05:21:32.800Z,18.18
2018-06-19T05:23:00.252Z,18.15
2018-06-19T05:24:28.061Z,18.12
2018-06-19T05:25:55.895Z,18.10
2018-06-19T05:27:22.383Z,18.10
2018-06-19T05:28:49.381Z,18.09
2018-06-19T05:30:17.799Z,18.08
2018-06-19T05:31:44.102Z,18.06
2018-06-19T05:33:11.564Z,18.07
2018-06-19T05:34:38.960Z,18.06
2018-06-19T05:36:06.529Z,18.07
2018-06-19T05:37:33.950Z,18.08
2018-06-19T05:39:01.360Z,18.10
2018-06-19T05:40:30.028Z,18.14
2018-06-19T05:41:56.249Z,18.17
2018-06-19T05:43:23.713Z,18.19
2018-06-19T05:44:51.125Z,18.22
2018-06-19T05:46:18.749Z,18.26
2018-06-19T05:47:47.288Z,18.28
2018-06-19T05:49:13.530Z,18.30
2018-06-19T05:50:40.739Z,18.30
2018-06-19T05:52:09.159Z,18.31
2018-06-19T05:53:36.564Z,18.33
2018-06-19T05:55:04.114Z,18.33
2018-06-19T05:56:30.524Z,18.34
2018-06-19T05:57:58.957Z,18.34
2018-06-19T05:59:26.367Z,18.32
2018-06-19T06:00:53.851Z,18.29
2018-06-19T06:02:19.843Z,18.29
2018-06-19T06:03:47.128Z,18.29
2018-06-19T06:05:14.421Z,18.32
2018-06-19T06:06:42.711Z,18.37
2018-06-19T06:08:09.194Z,18.43
2018-06-19T06:09:36.724Z,18.49
2018-06-19T06:11:04.198Z,18.53
2018-06-19T06:12:31.703Z,18.56
2018-06-19T06:14:00.253Z,18.59
2018-06-19T06:15:26.614Z,18.62
2018-06-19T06:16:54.189Z,18.62
2018-06-19T06:18:21.571Z,18.63
2018-06-19T06:19:48.808Z,18.65
2018-06-19T06:21:16.490Z,18.69
2018-06-19T06:22:43.813Z,18.75
2018-06-19T06:24:11.210Z,18.80
2018-06-19T06:25:38.829Z,18.86
2018-06-19T06:27:06.349Z,18.92
2018-06-19T06:28:33.710Z,18.97
2018-06-19T06:30:01.528Z,19.00
2018-06-19T06:31:29.833Z,19.02
2018-06-19T06:32:57.191Z,19.03
2018-06-19T06:34:23.578Z,19.05
2018-06-19T06:35:52.281Z,19.09
2018-06-19T06:37:18.625Z,19.15
2018-06-19T06:38:47.209Z,19.21
2018-06-19T06:40:14.569Z,19.25
2018-06-19T06:41:41.151Z,19.27
2018-06-19T06:43:09.525Z,19.28
2018-06-19T06:44:36.975Z,19.29
2018-06-19T06:46:03.444Z,19.31
2018-06-19T06:47:31.833Z,19.33
2018-06-19T06:48:58.343Z,19.33
2018-06-19T06:50:25.861Z,19.32
2018-06-19T06:51:54.226Z,19.31
2018-06-19T06:53:21.803Z,19.32
2018-06-19T06:54:48.053Z,19.31
2018-06-19T06:56:16.415Z,19.32
2018-06-19T06:57:42.819Z,19.33
2018-06-19T06:59:09.515Z,19.36
2018-06-19T07:00:37.151Z,19.38
2018-06-19T07:02:04.610Z,19.36
2018-06-19T07:03:32.177Z,19.36
2018-06-19T07:04:59.546Z,19.42
2018-06-19T07:06:27.546Z,19.51
2018-06-19T07:07:54.098Z,19.66
2018-06-19T07:09:21.582Z,19.83
2018-06-19T07:10:49.120Z,20.02
2018-06-19T07:12:16.530Z,20.16
2018-06-19T07:13:44.035Z,20.23
2018-06-19T07:15:11.314Z,20.21
2018-06-19T07:16:38.861Z,20.17
2018-06-19T07:18:06.625Z,20.18
2018-06-19T07:19:35.467Z,20.21
2018-06-19T07:21:02.923Z,20.22
2018-06-19T07:22:29.547Z,20.24
2018-06-19T07:23:56.817Z,20.22
2018-06-19T07:25:24.368Z,20.23
2018-06-19T07:26:51.878Z,20.30
2018-06-19T07:28:20.326Z,20.36
2018-06-19T07:29:46.952Z,20.49
2018-06-19T07:31:14.416Z,20.61
2018-06-19T07:32:43.074Z,20.70
2018-06-19T07:34:10.554Z,20.76
2018-06-19T07:35:37.120Z,20.81
2018-06-19T07:37:04.639Z,20.82
2018-06-19T07:38:33.122Z,20.83
2018-06-19T07:39:59.726Z,20.84
2018-06-19T07:41:27.303Z,20.87
2018-06-19T07:42:55.750Z,20.92
2018-06-19T07:44:22.079Z,21.00
2018-06-19T07:45:49.428Z,21.11
2018-06-19T07:47:17.965Z,21.26
2018-06-19T07:48:45.475Z,21.39
2018-06-19T07:50:12.857Z,21.53
2018-06-19T07:51:42.576Z,21.60
2018-06-19T07:53:06.906Z,21.71
2018-06-19T07:54:35.547Z,21.79
2018-06-19T07:56:02.929Z,21.82
2018-06-19T07:57:29.399Z,21.88
2018-06-19T07:58:56.958Z,21.92
2018-06-19T08:00:24.697Z,21.96
2018-06-19T08:01:52.184Z,21.98
2018-06-19T08:03:19.606Z,22.01
2018-06-19T08:04:47.202Z,22.02
2018-06-19T08:06:14.518Z,22.01
2018-06-19T08:07:43.009Z,21.98
2018-06-19T08:09:09.590Z,22.00
2018-06-19T08:10:37.189Z,22.01
2018-06-19T08:12:04.838Z,21.99
2018-06-19T08:13:32.194Z,21.94
2018-06-19T08:14:59.722Z,21.94
2018-06-19T08:16:28.123Z,21.97
2018-06-19T08:17:55.530Z,21.98
2018-06-19T08:19:22.036Z,22.00
2018-06-19T08:20:49.711Z,22.06
2018-06-19T08:22:18.176Z,22.13
2018-06-19T08:28:03.809Z,22.38
2018-06-19T08:29:30.271Z,22.45
2018-06-19T08:30:57.987Z,22.45
2018-06-19T08:32:26.552Z,22.47
2018-06-19T08:33:54.119Z,22.51
2018-06-19T08:35:21.593Z,22.56
2018-06-19T08:36:48.060Z,22.63
2018-06-19T08:38:15.629Z,22.65
2018-06-19T08:39:44.207Z,22.68
2018-06-19T08:41:10.725Z,22.73
2018-06-19T08:42:38.056Z,22.78
2018-06-19T08:44:06.675Z,22.79
2018-06-19T08:45:33.176Z,22.84
2018-06-19T08:47:01.804Z,22.88
2018-06-19T08:48:28.112Z,22.92
2018-06-19T08:49:56.608Z,22.94
2018-06-19T08:51:24.060Z,22.97
2018-06-19T08:52:51.059Z,22.98
2018-06-19T08:54:19.548Z,22.99
2018-06-19T08:55:47.159Z,22.96
2018-06-19T08:57:13.754Z,22.95
2018-06-19T08:58:41.508Z,22.97
2018-06-19T09:00:09.181Z,23.02
2018-06-19T09:01:36.840Z,23.09
2018-06-19T09:03:04.402Z,23.13
2018-06-19T09:04:32.097Z,23.20
2018-06-19T09:06:00.728Z,23.25
2018-06-19T09:07:27.387Z,23.26
2018-06-19T09:08:55.916Z,23.23
2018-06-19T09:10:23.394Z,23.18
2018-06-19T09:11:50.970Z,23.18
2018-06-19T09:13:18.592Z,23.19
2018-06-19T09:14:45.018Z,23.20
2018-06-19T09:16:12.447Z,23.17
2018-06-19T09:17:40.189Z,23.10
2018-06-19T09:19:07.712Z,23.03
2018-06-19T09:20:35.202Z,22.97
2018-06-19T09:22:02.884Z,22.93
2018-06-19T09:23:31.585Z,22.93
2018-06-19T09:24:58.000Z,22.93
2018-06-19T09:26:26.536Z,22.88
2018-06-19T09:27:52.993Z,22.82
2018-06-19T09:29:20.510Z,22.81
2018-06-19T09:30:47.719Z,22.83
2018-06-19T09:32:15.295Z,22.82
2018-06-19T09:33:42.904Z,22.86
2018-06-19T09:35:10.412Z,22.98
2018-06-19T09:36:38.035Z,23.10
2018-06-19T09:38:05.236Z,23.14
2018-06-19T09:39:33.649Z,23.12
2018-06-19T09:41:00.415Z,23.11
2018-06-19T09:42:27.867Z,23.14
2018-06-19T09:43:55.504Z,23.24
2018-06-19T09:45:23.898Z,23.38
2018-06-19T09:46:50.588Z,23.52
2018-06-19T09:48:18.999Z,23.61
2018-06-19T09:49:45.417Z,23.61
2018-06-19T09:51:12.945Z,23.55
2018-06-19T09:52:41.573Z,23.43
2018-06-19T09:54:08.256Z,23.35
2018-06-19T09:55:36.741Z,23.26
2018-06-19T09:57:03.465Z,23.18
2018-06-19T09:58:30.873Z,23.12
2018-06-19T09:59:59.308Z,23.08
2018-06-19T10:01:25.853Z,23.04
2018-06-19T10:02:53.406Z,23.13
2018-06-19T10:04:21.915Z,23.27
2018-06-19T10:05:48.448Z,23.42
2018-06-19T10:07:16.898Z,23.51
2018-06-19T10:08:43.482Z,23.55
2018-06-19T10:10:12.340Z,23.53
2018-06-19T10:11:39.950Z,23.51
2018-06-19T10:13:07.398Z,23.53
2018-06-19T10:14:35.032Z,23.55
2018-06-19T10:16:02.620Z,23.53
2018-06-19T10:17:30.058Z,23.56
2018-06-19T10:18:57.465Z,23.53
2018-06-19T10:20:23.969Z,23.50
2018-06-19T10:21:57.578Z,23.43
2018-06-19T10:23:20.019Z,23.35
2018-06-19T10:24:46.649Z,23.26
2018-06-19T10:26:14.114Z,23.13
2018-06-19T10:27:41.717Z,23.03
2018-06-19T10:29:10.391Z,22.92
2018-06-19T10:30:36.782Z,22.78
2018-06-19T10:32:05.531Z,22.66
2018-06-19T10:33:32.091Z,22.62
2018-06-19T10:34:59.786Z,22.61
2018-06-19T10:36:28.207Z,22.70
2018-06-19T10:37:54.859Z,22.82
2018-06-19T10:39:22.435Z,22.92
2018-06-19T10:40:49.829Z,23.02
2018-06-19T10:42:17.469Z,23.11
2018-06-19T10:43:44.930Z,23.18
2018-06-19T10:45:12.474Z,23.24
2018-06-19T10:46:41.134Z,23.30
2018-06-19T10:48:08.649Z,23.34
2018-06-19T10:49:35.177Z,23.35
2018-06-19T10:51:03.737Z,23.37
2018-06-19T10:52:31.285Z,23.38
2018-06-19T10:53:57.845Z,23.33
2018-06-19T10:55:25.371Z,23.29
2018-06-19T10:56:54.158Z,23.22
2018-06-19T10:58:20.606Z,23.09
2018-06-19T10:59:48.086Z,23.01
2018-06-19T11:01:16.705Z,22.96
2018-06-19T11:02:43.247Z,22.89
2018-06-19T11:04:11.895Z,22.84
2018-06-19T11:05:38.360Z,22.80
2018-06-19T11:07:07.164Z,22.80
2018-06-19T11:08:33.637Z,22.81
2018-06-19T11:10:02.188Z,22.84
2018-06-19T11:11:29.781Z,22.95
2018-06-19T11:12:56.299Z,23.09
2018-06-19T11:14:25.028Z,23.24
2018-06-19T11:15:51.393Z,23.40
2018-06-19T11:17:18.915Z,23.53
2018-06-19T11:18:46.612Z,23.61
2018-06-19T11:20:15.144Z,23.64
2018-06-19T11:21:42.079Z,23.66
2018-06-19T11:23:10.593Z,23.67
2018-06-19T11:24:38.331Z,23.66
2018-06-19T11:26:04.802Z,23.64
2018-06-19T11:27:33.525Z,23.60
2018-06-19T11:29:01.176Z,23.60
2018-06-19T11:30:27.479Z,23.61
2018-06-19T11:31:54.980Z,23.64
2018-06-19T11:33:22.566Z,23.71
2018-06-19T11:34:50.063Z,23.76
2018-06-19T11:36:17.526Z,23.80
2018-06-19T11:37:45.094Z,23.88
2018-06-19T11:39:12.747Z,23.90
2018-06-19T11:40:41.367Z,23.90
2018-06-19T11:42:08.876Z,23.90
2018-06-19T11:43:35.500Z,23.86
2018-06-19T11:45:03.208Z,23.84
2018-06-19T11:46:30.812Z,23.88
2018-06-19T11:47:58.386Z,24.02
2018-06-19T11:49:25.983Z,24.24
2018-06-19T11:50:53.564Z,24.44
2018-06-19T11:52:21.918Z,24.52
2018-06-19T11:53:48.226Z,24.63
2018-06-19T11:55:15.923Z,24.72
2018-06-19T11:56:43.670Z,24.69
2018-06-19T11:58:11.020Z,24.68
2018-06-19T11:59:38.841Z,24.52
2018-06-19T12:01:06.408Z,24.43
2018-06-19T12:02:33.853Z,24.37
2018-06-19T12:04:01.419Z,24.29
2018-06-19T12:05:28.954Z,24.23
2018-06-19T12:06:57.545Z,24.16
2018-06-19T12:08:24.105Z,24.09
2018-06-19T12:09:51.648Z,24.03
2018-06-19T12:11:19.202Z,23.91
2018-06-19T12:12:46.829Z,23.84
2018-06-19T12:14:14.650Z,23.78
2018-06-19T12:15:43.193Z,23.70
2018-06-19T12:17:10.678Z,23.61
2018-06-19T12:18:37.183Z,23.49
2018-06-19T12:20:04.647Z,23.40
2018-06-19T12:21:32.112Z,23.36
2018-06-19T12:23:00.797Z,23.33
2018-06-19T12:24:27.261Z,23.32
2018-06-19T12:25:54.805Z,23.26
2018-06-19T12:27:22.291Z,23.20
2018-06-19T12:28:49.833Z,23.14
2018-06-19T12:30:18.432Z,23.10
2018-06-19T12:31:45.030Z,23.04
2018-06-19T12:33:13.734Z,22.97
2018-06-19T12:34:41.203Z,22.92
2018-06-19T12:36:07.696Z,22.85
2018-06-19T12:37:36.370Z,22.84
2018-06-19T12:39:03.024Z,22.84
2018-06-19T12:40:31.532Z,22.86
2018-06-19T12:41:58.201Z,22.91
2018-06-19T12:43:26.829Z,22.96
2018-06-19T12:44:54.383Z,23.02
2018-06-19T12:46:20.792Z,23.09
2018-06-19T12:47:49.238Z,23.19
2018-06-19T12:49:15.925Z,23.24
2018-06-19T12:50:43.096Z,23.27
2018-06-19T12:52:11.730Z,23.25
2018-06-19T12:53:44.540Z,23.25
2018-06-19T12:55:05.647Z,23.20
2018-06-19T12:56:33.229Z,23.16
2018-06-19T12:58:01.845Z,23.14
2018-06-19T12:59:28.520Z,23.21
2018-06-19T13:00:57.144Z,23.20
2018-06-19T13:02:24.697Z,23.21
2018-06-19T13:03:51.313Z,23.30
2018-06-19T13:05:19.879Z,23.43
2018-06-19T13:06:47.512Z,23.53
2018-06-19T13:08:15.198Z,23.61
2018-06-19T13:09:42.727Z,23.67
2018-06-19T13:11:10.323Z,23.73
2018-06-19T13:12:37.687Z,23.76
2018-06-19T13:14:04.253Z,23.77
2018-06-19T13:15:32.552Z,23.72
2018-06-19T13:16:59.206Z,23.66
2018-06-19T13:18:26.921Z,23.57
2018-06-19T13:19:54.431Z,23.50
2018-06-19T13:21:23.134Z,23.45
2018-06-19T13:22:49.601Z,23.46
2018-06-19T13:24:17.132Z,23.48
2018-06-19T13:25:44.635Z,23.54
2018-06-19T13:27:13.350Z,23.60
2018-06-19T13:28:39.956Z,23.67
2018-06-19T13:30:08.499Z,23.76
2018-06-19T13:31:35.263Z,23.83
2018-06-19T13:33:02.668Z,23.90
2018-06-19T13:34:31.239Z,23.97
2018-06-19T13:35:57.774Z,24.04
2018-06-19T13:37:25.334Z,24.07
2018-06-19T13:38:52.859Z,24.08
2018-06-19T13:40:20.409Z,24.11
2018-06-19T13:41:47.956Z,24.10
2018-06-19T13:43:16.502Z,24.06
2018-06-19T13:44:42.974Z,24.00
2018-06-19T13:46:10.746Z,23.95
2018-06-19T13:47:38.525Z,23.91
2018-06-19T13:49:06.954Z,23.90
2018-06-19T13:50:33.526Z,23.84
2018-06-19T13:52:01.218Z,23.82
2018-06-19T13:53:29.609Z,23.78
2018-06-19T13:54:56.166Z,23.74
2018-06-19T13:56:23.766Z,23.74
2018-06-19T13:57:51.304Z,23.72
2018-06-19T13:59:19.626Z,23.70
2018-06-19T14:00:46.311Z,23.67
2018-06-19T14:02:14.910Z,23.64
2018-06-19T14:03:41.396Z,23.59
2018-06-19T14:05:09.605Z,23.56
2018-06-19T14:06:37.226Z,23.53
2018-06-19T14:08:03.743Z,23.46
2018-06-19T14:09:31.946Z,23.44
2018-06-19T14:10:58.461Z,23.47
2018-06-19T14:12:25.953Z,23.53
2018-06-19T14:13:53.568Z,23.62
2018-06-19T14:15:21.250Z,23.71
2018-06-19T14:16:49.639Z,23.78
2018-06-19T14:18:16.319Z,23.84
2018-06-19T14:19:43.826Z,23.81
2018-06-19T14:21:11.367Z,23.76
2018-06-19T14:22:40.057Z,23.72
2018-06-19T14:24:06.801Z,23.72
2018-06-19T14:25:35.501Z,23.72
2018-06-19T14:27:02.012Z,23.70
2018-06-19T14:28:30.574Z,23.71
2018-06-19T14:29:57.124Z,23.74
2018-06-19T14:31:24.553Z,23.78
2018-06-19T14:32:53.096Z,23.82
2018-06-19T14:34:20.669Z,23.84
2018-06-19T14:35:48.202Z,23.90
2018-06-19T14:37:15.865Z,23.95
2018-06-19T14:38:42.015Z,23.96
2018-06-19T14:40:10.781Z,23.95
2018-06-19T14:41:38.460Z,23.91
2018-06-19T14:43:05.136Z,23.84
2018-06-19T14:44:33.846Z,23.74
2018-06-19T14:46:00.326Z,23.65
2018-06-19T14:47:28.633Z,23.60
2018-06-19T14:48:56.154Z,23.57
2018-06-19T14:50:22.634Z,23.50
2018-06-19T14:51:50.092Z,23.44
2018-06-19T14:53:18.723Z,23.41
2018-06-19T14:54:46.320Z,23.46
2018-06-19T14:56:13.697Z,23.54
2018-06-19T14:57:40.289Z,23.64
2018-06-19T14:59:08.939Z,23.73
2018-06-19T15:00:35.552Z,23.80
2018-06-19T15:02:02.908Z,23.86
2018-06-19T15:03:31.503Z,23.92
2018-06-19T15:04:58.188Z,23.95
2018-06-19T15:06:26.782Z,23.94
2018-06-19T15:07:53.232Z,23.88
2018-06-19T15:09:21.785Z,23.81
2018-06-19T15:10:48.309Z,23.76
2018-06-19T15:12:17.069Z,23.73
2018-06-19T15:13:43.613Z,23.71
2018-06-19T15:15:11.085Z,23.67
2018-06-19T15:16:39.788Z,23.66
2018-06-19T15:18:06.266Z,23.65
2018-06-19T15:19:34.694Z,23.63
2018-06-19T15:21:01.429Z,23.57
2018-06-19T15:22:29.960Z,23.54
2018-06-19T15:23:57.551Z,23.52
2018-06-19T15:25:24.117Z,23.51
2018-06-19T15:26:52.668Z,23.51
2018-06-19T15:28:19.058Z,23.50
2018-06-19T15:29:47.744Z,23.51
2018-06-19T15:31:14.373Z,23.52
2018-06-19T15:32:41.988Z,23.49
2018-06-19T15:34:09.704Z,23.46
2018-06-19T15:35:38.244Z,23.42
2018-06-19T15:37:05.985Z,23.39
2018-06-19T15:38:33.409Z,23.35
2018-06-19T15:39:59.768Z,23.33
2018-06-19T15:41:28.257Z,23.36
2018-06-19T15:42:55.758Z,23.38
2018-06-19T15:44:23.239Z,23.40
2018-06-19T15:45:50.978Z,23.40
2018-06-19T15:47:17.505Z,23.41
2018-06-19T15:48:46.116Z,23.40
2018-06-19T15:50:13.729Z,23.39
2018-06-19T15:51:40.323Z,23.38
2018-06-19T15:53:08.919Z,23.38
2018-06-19T15:54:36.657Z,23.41
2018-06-19T15:56:04.219Z,23.44
2018-06-19T15:57:30.663Z,23.49
2018-06-19T15:58:59.112Z,23.52
2018-06-19T16:00:25.718Z,23.53
2018-06-19T16:01:53.501Z,23.53
2018-06-19T16:03:21.037Z,23.51
2018-06-19T16:04:49.590Z,23.49
2018-06-19T16:06:16.291Z,23.46
2018-06-19T16:07:43.925Z,23.44
2018-06-19T16:09:11.488Z,23.41
2018-06-19T16:10:39.078Z,23.38
2018-06-19T16:12:06.586Z,23.36
2018-06-19T16:13:34.315Z,23.36
2018-06-19T16:15:03.075Z,23.37
2018-06-19T16:16:29.650Z,23.39
2018-06-19T16:17:58.167Z,23.43
2018-06-19T16:19:25.832Z,23.45
2018-06-19T16:20:53.272Z,23.46
2018-06-19T16:22:20.849Z,23.44
2018-06-19T16:23:48.022Z,23.43
2018-06-19T16:25:15.832Z,23.40
2018-06-19T16:26:42.260Z,23.38
2018-06-19T16:28:09.859Z,23.32
2018-06-19T16:29:37.588Z,23.29
2018-06-19T16:31:05.288Z,23.28
2018-06-19T16:32:32.681Z,23.24
2018-06-19T16:34:01.484Z,23.22
2018-06-19T16:35:27.984Z,23.20
2018-06-19T16:36:56.648Z,23.20
2018-06-19T16:38:24.331Z,23.21
2018-06-19T16:39:51.012Z,23.23
2018-06-19T16:41:18.572Z,23.23
2018-06-19T16:42:47.235Z,23.24
2018-06-19T16:44:14.699Z,23.24
2018-06-19T16:45:41.194Z,23.26
2018-06-19T16:47:08.886Z,23.28
2018-06-19T16:48:36.452Z,23.27
2018-06-19T16:50:05.129Z,23.26
2018-06-19T16:51:31.805Z,23.21
2018-06-19T16:52:59.449Z,23.14
2018-06-19T16:54:28.062Z,23.11
2018-06-19T16:55:54.499Z,23.07
2018-06-19T16:57:22.225Z,23.05
2018-06-19T16:58:49.872Z,23.05
2018-06-19T17:00:17.423Z,23.06
2018-06-19T17:01:45.029Z,23.06
2018-06-19T17:03:13.601Z,23.03
2018-06-19T17:04:40.196Z,23.00
2018-06-19T17:06:08.709Z,22.96
2018-06-19T17:07:35.121Z,22.91
2018-06-19T17:09:03.811Z,22.88
2018-06-19T17:10:31.364Z,22.84
2018-06-19T17:11:58.903Z,22.80
2018-06-19T17:13:26.455Z,22.76
2018-06-19T17:14:52.987Z,22.69
2018-06-19T17:16:20.475Z,22.65
2018-06-19T17:17:48.074Z,22.61
2018-06-19T17:19:15.714Z,22.59
2018-06-19T17:20:43.234Z,22.57
2018-06-19T17:22:11.649Z,22.53
2018-06-19T17:23:38.001Z,22.53
2018-06-19T17:25:05.648Z,22.53
2018-06-19T17:26:33.435Z,22.51
2018-06-19T17:28:01.956Z,22.51
2018-06-19T17:29:28.488Z,22.50
2018-06-19T17:30:56.113Z,22.48
2018-06-19T17:32:24.745Z,22.46
2018-06-19T17:33:51.462Z,22.45
2018-06-19T17:35:19.958Z,22.43
2018-06-19T17:36:46.421Z,22.41
2018-06-19T17:38:14.137Z,22.38
2018-06-19T17:39:41.794Z,22.36
2018-06-19T17:41:10.379Z,22.33
2018-06-19T17:42:36.822Z,22.31
2018-06-19T17:44:05.505Z,22.28
2018-06-19T17:45:31.972Z,22.25
2018-06-19T17:46:59.581Z,22.20
2018-06-19T17:48:28.097Z,22.16
2018-06-19T17:49:55.754Z,22.13
2018-06-19T17:51:23.389Z,22.09
2018-06-19T17:52:49.992Z,21.99
2018-06-19T17:54:17.675Z,21.94
2018-06-19T17:55:46.505Z,21.91
2018-06-19T17:57:12.983Z,21.86
2018-06-19T17:58:40.653Z,21.82
2018-06-19T18:00:08.177Z,21.80
2018-06-19T18:01:35.735Z,21.75
2018-06-19T18:03:04.347Z,21.69
2018-06-19T18:04:31.025Z,21.64
2018-06-19T18:05:58.651Z,21.59
2018-06-19T18:07:26.364Z,21.54
2018-06-19T18:08:53.997Z,21.50
2018-06-19T18:10:21.630Z,21.46
2018-06-19T18:11:49.188Z,21.42
2018-06-19T18:13:17.723Z,21.37
2018-06-19T18:14:45.281Z,21.33
2018-06-19T18:16:11.819Z,21.30
2018-06-19T18:17:39.480Z,21.27
2018-06-19T18:19:07.039Z,21.26
2018-06-19T18:20:34.633Z,21.25
2018-06-19T18:22:03.229Z,21.24
2018-06-19T18:23:29.839Z,21.24
2018-06-19T18:24:58.413Z,21.25
2018-06-19T18:26:24.946Z,21.27
2018-06-19T18:27:52.264Z,21.29
2018-06-19T18:29:19.601Z,21.27
2018-06-19T18:30:47.273Z,21.23
2018-06-19T18:32:15.882Z,21.17
2018-06-19T18:33:43.343Z,21.11
2018-06-19T18:35:09.903Z,21.04
2018-06-19T18:36:38.251Z,20.98
2018-06-19T18:38:04.791Z,20.95
2018-06-19T18:39:32.276Z,20.93
2018-06-19T18:40:59.850Z,20.91
2018-06-19T18:42:26.338Z,20.88
2018-06-19T18:43:54.776Z,20.84
2018-06-19T18:45:23.241Z,20.82
2018-06-19T18:46:49.848Z,20.78
2018-06-19T18:48:17.504Z,20.72
2018-06-19T18:49:44.968Z,20.68
2018-06-19T18:51:13.259Z,20.63